Aérodrome :
LOGIN :

S'inscrire | Disclaimer

   EN    FR    IT 

 










Légende :    VFR   VFR Marginal   IFR   IFR Intensif   IFR Très Intensif
Visi : 
Plafond : 
>= 8 km
>= 3000ft
5 à 8 km
1000 à 3000 ft
1500m à 5 km
500 à 1000 ft
800 à 1500m
200 à 500 ft
< 800m
< 200 ft
Symboles :   Orages  Brouillard  Fortes neiges  Fortes précipitations  Vent > 20 kt
SIGMETs :   Divers  Orages  Givrage  Turbulence  Onde Orograph.  Cendres Volcan.






- Altitude de l'aérodrome : 776 ft
- Code IATA : RMS


ETAR - Ramstein Air Base

DERNIER METAR :
  • 260429Z 00000KT 2200 BR OVC002 M01/M01 A3009 RMK AO2A VIS 2200V3000 VIS 1400 RWY08/26 VIS 1400 RWY09/27 CIG 001 RWY08 SLP207 FZRANO $

METARs EXPIRÉS :
  • 260414Z 00000KT 2200 BR OVC002 M01/M01 A3009 RMK AO2A VIS 1000V2200 VIS 1000 RWY08 VIS 1400 RWY08/26 VIS 1400 RWY09/27 VIS 1000 RWY27 CIG 001 RWY08 SLP207 FZRANO $
  • 260356Z 00000KT 1000 R26/1100V1300 BR VV002 M01/M01 A3009 RMK AO2A CIG 001 RWY08 SLP207 T10061006 FZRANO $
  • 260343Z 00000KT 1000 R26/1100V1200 BR VV002 M01/M01 A3009 RMK AO2A CIG 001 RWY08 SLP207 FZRANO $
  • 260256Z 00000KT 1000 R26/1000V1100 BR VV002 M01/M01 A3010 RMK AO2A CIG 001 RWY08 SLP210 T10061006 55008 FZRANO $
  • 260156Z 03003KT 1000 R26/0900V1300 BR VV002 00/00 A3011 RMK AO2A CIG 001 RWY08 SLP212 T10041004 FZRANO $
  • 260141Z 05003KT 0800 R26/0800V1000 FZFG VV001 00/00 A3011 RMK AO2A SLP212 FZRANO $

TAF TAF ETAR
Valide du 26 à 02h jusqu'au 27 à 08h UTC


260200Z 2602/2708 VRB06KT 0800 FZFG OVC002 630001 QNH3008INS
BECMG 2611/2612 19009KT 8000 BR FEW020 QNH3002INS
BECMG 2617/2618 21006KT 5000 BR BKN015 QNH3002INS
BECMG 2621/2622 21009KT 8000 -RA OVC010 QNH2997INS
BECMG 2703/2704 22010G20KT 8000 -RA OVC010 QNH2994INS
TEMPO 2704/2708 23015G25KT 6000 -RA SCT008 OVC010 510003 TX07/2614Z TN00/2602Z



MET'MAP, la Météo Aéronautique d'un coup d'oeil ! - Copyright ORBIFLY Décembre 2007 - Disclaimer

ORBIFLY MET'MAP TEAM :

Programmation & Développement : Alexandra Zaïnal
Sur une idée originale de : Baudouin d'Aumeries
Assistance à la programmation : Marc-Olivier Méhu
Soutien technique & logistique : Manuel Goepfert

Contact : metmap@orbifly.com




SOURCES & CREDITS :

   NOAA